createdAt,value
2022-11-13T00:04:45.975Z,31.83
2022-11-13T00:09:54.813Z,27.77
2022-11-13T00:15:03.215Z,30.50
2022-11-13T00:20:11.379Z,33.43
2022-11-13T00:25:19.280Z,30.10
2022-11-13T00:30:27.261Z,28.83
2022-11-13T00:35:35.607Z,29.20
2022-11-13T00:40:44.778Z,26.00
2022-11-13T00:45:53.239Z,27.43
2022-11-13T00:51:01.314Z,27.30
2022-11-13T00:56:09.386Z,29.60
2022-11-13T01:01:19.510Z,30.57
2022-11-13T01:06:28.478Z,29.80
2022-11-13T01:11:37.395Z,33.40
2022-11-13T01:16:45.231Z,29.20
2022-11-13T01:21:53.036Z,30.67
2022-11-13T01:27:00.851Z,27.40
2022-11-13T01:32:09.091Z,30.43
2022-11-13T01:37:17.176Z,34.83
2022-11-13T01:42:25.048Z,38.20
2022-11-13T01:47:32.994Z,34.60
2022-11-13T01:52:41.368Z,33.30
2022-11-13T01:57:49.193Z,31.57
2022-11-13T02:02:57.028Z,37.97
2022-11-13T02:08:05.370Z,40.23
2022-11-13T02:13:13.419Z,34.80
2022-11-13T02:18:21.659Z,38.87
2022-11-13T02:23:32.728Z,33.67
2022-11-13T02:28:41.245Z,33.63
2022-11-13T02:33:49.437Z,39.13
2022-11-13T02:38:59.373Z,36.80
2022-11-13T02:44:08.012Z,39.97
2022-11-13T02:49:15.831Z,40.97
2022-11-13T02:54:23.706Z,40.53
2022-11-13T02:59:31.544Z,42.77
2022-11-13T03:05:10.462Z,39.27
2022-11-13T03:09:48.970Z,39.63
2022-11-13T03:14:58.262Z,47.50
2022-11-13T03:20:07.564Z,43.40
2022-11-13T03:25:15.434Z,49.67
2022-11-13T03:30:23.330Z,46.50
2022-11-13T03:35:36.296Z,46.03
2022-11-13T03:40:41.371Z,51.83
2022-11-13T03:45:49.313Z,45.87
2022-11-13T03:50:57.984Z,42.07
2022-11-13T03:56:06.572Z,48.03
2022-11-13T04:01:14.500Z,46.20
2022-11-13T04:06:22.659Z,44.30
2022-11-13T04:11:30.992Z,44.83
2022-11-13T04:16:38.954Z,37.20
2022-11-13T04:21:46.847Z,43.27
2022-11-13T04:26:54.666Z,43.47
2022-11-13T04:32:02.483Z,39.30
2022-11-13T04:37:10.651Z,40.90
2022-11-13T04:42:20.784Z,43.93
2022-11-13T04:47:29.186Z,43.50
2022-11-13T04:52:38.028Z,48.03
2022-11-13T04:57:46.467Z,48.17
2022-11-13T05:02:54.310Z,48.83
2022-11-13T05:08:02.271Z,41.53
2022-11-13T05:13:10.670Z,44.07
2022-11-13T05:18:18.663Z,50.50
2022-11-13T05:23:26.597Z,43.33
2022-11-13T05:28:34.515Z,51.27
2022-11-13T05:33:42.869Z,40.80
2022-11-13T05:38:50.827Z,41.20
2022-11-13T05:43:59.987Z,45.43
2022-11-13T05:49:10.768Z,48.27
2022-11-13T05:54:18.619Z,45.67
2022-11-13T05:59:26.641Z,47.80
2022-11-13T06:04:34.540Z,43.87
2022-11-13T06:09:42.407Z,47.70
2022-11-13T06:14:50.288Z,43.60
2022-11-13T06:19:58.144Z,41.07
2022-11-13T06:25:06.411Z,44.63
2022-11-13T06:30:14.927Z,44.80
2022-11-13T06:35:22.815Z,45.47
2022-11-13T06:40:30.711Z,50.10
2022-11-13T06:45:38.681Z,51.60
2022-11-13T06:50:48.586Z,53.23
2022-11-13T06:55:56.278Z,49.37
2022-11-13T07:01:07.357Z,54.50
2022-11-13T07:06:17.942Z,56.63
2022-11-13T07:11:25.824Z,57.73
2022-11-13T07:16:56.352Z,52.17
2022-11-13T07:21:44.151Z,54.87
2022-11-13T07:26:52.039Z,50.37
2022-11-13T07:31:59.968Z,55.53
2022-11-13T07:37:09.162Z,55.30
2022-11-13T07:42:17.274Z,47.47
2022-11-13T07:47:26.599Z,50.33
2022-11-13T07:52:34.466Z,59.23
2022-11-13T07:57:42.398Z,53.57
2022-11-13T08:02:50.850Z,49.93
2022-11-13T08:07:58.863Z,54.50
2022-11-13T08:13:08.402Z,49.80
2022-11-13T08:18:16.346Z,51.50
2022-11-13T08:23:24.373Z,51.80
2022-11-13T08:28:33.375Z,61.50
2022-11-13T08:33:42.063Z,56.90
2022-11-13T08:38:50.468Z,55.53
2022-11-13T08:43:58.401Z,57.70
2022-11-13T08:49:06.603Z,58.93
2022-11-13T08:54:14.510Z,60.20
2022-11-13T08:59:24.405Z,57.47
2022-11-13T09:04:32.262Z,53.23
2022-11-13T09:09:40.187Z,55.03
2022-11-13T09:14:48.187Z,52.37
2022-11-13T09:19:59.467Z,58.80
2022-11-13T09:25:06.506Z,56.20
2022-11-13T09:30:14.657Z,59.07
2022-11-13T09:35:24.539Z,70.87
2022-11-13T09:40:35.770Z,70.03
2022-11-13T09:45:44.222Z,73.27
2022-11-13T09:50:52.238Z,79.53
2022-11-13T09:56:03.238Z,79.60
2022-11-13T10:01:15.166Z,69.83
2022-11-13T10:06:29.163Z,72.90
2022-11-13T10:11:40.751Z,72.30
2022-11-13T10:16:51.778Z,65.97
2022-11-13T10:22:31.071Z,62.53
2022-11-13T10:27:13.529Z,63.50
2022-11-13T10:37:50.002Z,63.97
2022-11-13T10:43:00.974Z,59.90
2022-11-13T10:48:13.039Z,60.47
2022-11-13T10:53:21.516Z,76.43
2022-11-13T10:58:29.831Z,60.70
2022-11-13T11:03:38.029Z,65.43
2022-11-13T11:08:46.921Z,65.03
2022-11-13T11:13:54.764Z,59.60
2022-11-13T11:19:04.307Z,51.07
2022-11-13T11:24:18.091Z,56.40
2022-11-13T11:29:29.134Z,63.60
2022-11-13T11:39:53.009Z,63.40
2022-11-13T11:45:05.093Z,61.43
2022-11-13T11:50:15.672Z,51.10
2022-11-13T11:55:26.639Z,59.70
2022-11-13T12:00:35.079Z,64.10
2022-11-13T12:05:46.075Z,63.07
2022-11-13T12:10:57.986Z,61.80
2022-11-13T12:16:09.792Z,61.77
2022-11-13T12:21:20.791Z,59.90
2022-11-13T12:26:30.679Z,64.60
2022-11-13T12:31:42.050Z,64.07
2022-11-13T12:36:50.104Z,70.97
2022-11-13T12:42:01.520Z,67.43
2022-11-13T12:47:09.329Z,73.67
2022-11-13T12:52:21.034Z,74.87
2022-11-13T12:57:30.837Z,69.83
2022-11-13T13:02:42.089Z,68.87
2022-11-13T13:13:08.869Z,72.00
2022-11-13T13:23:34.159Z,73.20
2022-11-13T13:28:43.887Z,67.67
2022-11-13T13:33:55.577Z,65.83
2022-11-13T13:39:08.418Z,74.93
2022-11-13T13:44:20.443Z,74.73
2022-11-13T13:49:29.666Z,75.63
2022-11-13T13:54:37.590Z,74.00
2022-11-13T13:59:46.674Z,71.90
2022-11-13T14:04:56.005Z,66.70
2022-11-13T14:10:06.373Z,69.57
2022-11-13T14:15:17.330Z,63.13
2022-11-13T14:20:25.287Z,74.00
2022-11-13T14:25:33.591Z,74.40
2022-11-13T14:30:41.594Z,67.33
2022-11-13T14:35:52.410Z,80.67
2022-11-13T14:41:00.299Z,82.00
2022-11-13T14:46:10.597Z,92.00
2022-11-13T14:51:21.531Z,90.87
2022-11-13T14:56:32.863Z,87.17
2022-11-13T15:01:41.018Z,86.23
2022-11-13T15:06:49.045Z,85.57
2022-11-13T15:11:57.137Z,80.90
2022-11-13T15:17:05.445Z,87.03
2022-11-13T15:22:27.290Z,103.50
2022-11-13T15:27:23.706Z,158.63
2022-11-13T15:32:32.748Z,132.73
2022-11-13T15:37:40.802Z,138.47
2022-11-13T15:42:51.378Z,136.57
2022-11-13T15:47:59.261Z,142.40
2022-11-13T15:53:07.222Z,103.63
2022-11-13T15:58:16.976Z,103.30
2022-11-13T16:03:27.008Z,91.30
2022-11-13T16:08:35.275Z,93.77
2022-11-13T16:13:43.191Z,85.40
2022-11-13T16:18:55.850Z,90.93
2022-11-13T16:24:01.182Z,87.53
2022-11-13T16:29:14.127Z,86.87
2022-11-13T16:34:23.500Z,96.63
2022-11-13T16:39:31.364Z,93.17
2022-11-13T16:44:39.496Z,106.70
2022-11-13T16:49:47.315Z,103.63
2022-11-13T16:54:55.288Z,102.37
2022-11-13T17:00:04.615Z,104.47
2022-11-13T17:05:15.280Z,123.67
2022-11-13T17:10:31.520Z,117.17
2022-11-13T17:15:34.022Z,100.50
2022-11-13T17:20:44.449Z,96.83
2022-11-13T17:25:53.573Z,110.27
2022-11-13T17:31:06.561Z,105.47
2022-11-13T17:36:15.198Z,87.27
2022-11-13T17:41:23.906Z,112.67
2022-11-13T17:46:32.181Z,97.20
2022-11-13T17:51:40.415Z,106.63
2022-11-13T17:56:49.245Z,114.07
2022-11-13T18:01:58.824Z,124.67
2022-11-13T18:07:09.263Z,129.63
2022-11-13T18:12:20.286Z,121.30
2022-11-13T18:17:28.414Z,112.47
2022-11-13T18:22:38.506Z,136.07
2022-11-13T18:27:46.621Z,106.13
2022-11-13T18:32:55.430Z,116.30
2022-11-13T18:38:04.340Z,104.27
2022-11-13T18:43:12.326Z,110.80
2022-11-13T18:48:20.246Z,121.07
2022-11-13T18:53:29.902Z,100.83
2022-11-13T18:58:39.378Z,141.30
2022-11-13T19:04:08.182Z,201.10
2022-11-13T19:09:00.195Z,148.73
2022-11-13T19:14:08.808Z,129.47
2022-11-13T19:19:19.368Z,129.90
2022-11-13T19:24:27.690Z,107.43
2022-11-13T19:29:37.557Z,114.60
2022-11-13T19:34:46.866Z,131.40
2022-11-13T19:39:55.343Z,125.37
2022-11-13T19:45:03.650Z,162.50
2022-11-13T19:50:11.866Z,201.13
2022-11-13T19:55:20.344Z,197.87
2022-11-13T20:00:31.392Z,161.07
2022-11-13T20:05:44.068Z,155.23
2022-11-13T20:10:52.188Z,131.87
2022-11-13T20:16:07.370Z,147.87
2022-11-13T20:21:19.943Z,142.67
2022-11-13T20:26:29.375Z,137.93
2022-11-13T20:31:38.708Z,139.67
2022-11-13T20:36:47.493Z,166.83
2022-11-13T20:41:55.539Z,150.50
2022-11-13T20:47:05.145Z,129.90
2022-11-13T20:52:14.127Z,150.70
2022-11-13T20:57:23.131Z,156.00
2022-11-13T21:02:31.235Z,163.23
2022-11-13T21:07:42.769Z,140.87
2022-11-13T21:12:52.162Z,156.20
2022-11-13T21:18:00.254Z,125.77
2022-11-13T21:23:10.185Z,124.23
2022-11-13T21:28:23.400Z,104.87
2022-11-13T21:33:28.358Z,92.00
2022-11-13T21:38:36.997Z,78.87
2022-11-13T21:48:42.365Z,85.63
2022-11-13T21:53:50.359Z,78.80
2022-11-13T21:58:59.469Z,77.33
2022-11-13T22:04:07.797Z,94.20
2022-11-13T22:09:20.441Z,68.73
2022-11-13T22:14:29.215Z,82.33
2022-11-13T22:19:37.756Z,86.17
2022-11-13T22:24:45.673Z,92.23
2022-11-13T22:29:54.232Z,88.07
2022-11-13T22:35:02.156Z,76.77
2022-11-13T22:40:10.762Z,82.20
2022-11-13T22:45:23.766Z,88.37
2022-11-13T22:50:28.285Z,86.83
2022-11-13T22:55:36.269Z,99.03
2022-11-13T23:00:45.358Z,80.37
2022-11-13T23:05:53.283Z,83.90
2022-11-13T23:11:01.484Z,68.07
2022-11-13T23:16:10.318Z,85.87
2022-11-13T23:21:18.544Z,96.80
2022-11-13T23:26:27.393Z,94.20
2022-11-13T23:31:35.211Z,90.20
2022-11-13T23:36:43.023Z,85.70
2022-11-13T23:41:51.472Z,148.97
2022-11-13T23:46:59.386Z,116.63
2022-11-13T23:52:07.371Z,94.37
2022-11-13T23:57:16.704Z,97.53
